Time,TemperatureF,DewpointF,PressureIn,WindDirection,WindDirectionDegrees,WindSpeedMPH,WindSpeedGustMPH,Humidity,HourlyPrecipIn,Conditions,Clouds,dailyrainin,SoftwareType,DateUTC
2013-07-20 00:00:00,75.0,69.5,29.86,SW,219,4.0,10.0,83,0.00,,---,0.06,VWS V14.01,2013-07-20 04:00:00,
2013-07-20 00:10:00,74.8,69.3,29.85,WSW,241,1.0,8.0,83,0.00,,---,0.06,VWS V14.01,2013-07-20 04:10:00,
2013-07-20 00:30:00,74.5,69.3,29.85,SW,233,0.0,7.0,84,0.00,,---,0.06,VWS V14.01,2013-07-20 04:30:00,
2013-07-20 00:40:00,74.8,69.7,29.84,WSW,242,5.0,8.0,84,0.00,,---,0.06,VWS V14.01,2013-07-20 04:40:00,
2013-07-20 00:50:00,74.9,69.7,29.84,SW,215,6.0,6.0,84,0.00,,---,0.06,VWS V14.01,2013-07-20 04:50:00,
2013-07-20 08:13:00,74.4,70.6,29.86,South,187,4.0,4.0,88,0.00,,---,0.00,VWS V14.01,2013-07-20 12:13:00,
2013-07-20 08:14:00,74.4,70.6,29.86,SSW,194,5.0,7.0,88,0.00,,---,0.00,VWS V14.01,2013-07-20 12:14:00,
2013-07-20 08:19:00,74.5,70.7,29.86,SW,233,7.0,7.0,88,0.00,,---,0.00,VWS V14.01,2013-07-20 12:19:00,
2013-07-20 08:20:00,74.5,70.7,29.86,SSW,195,4.0,10.0,88,0.00,,---,0.00,VWS V14.01,2013-07-20 12:20:00,
2013-07-20 08:24:00,74.6,70.8,29.85,SSW,213,7.0,14.0,88,0.00,,---,0.00,VWS V14.01,2013-07-20 12:24:00,
2013-07-20 08:29:00,75.0,70.9,29.86,West,276,3.0,4.0,87,0.00,,---,0.00,VWS V14.01,2013-07-20 12:29:00,
2013-07-20 08:30:00,75.0,70.9,29.85,SSW,195,3.0,14.0,87,0.00,,---,0.00,VWS V14.01,2013-07-20 12:30:00,
2013-07-20 08:34:00,75.2,71.1,29.85,SSW,213,9.0,13.0,87,0.00,,---,0.00,VWS V14.01,2013-07-20 12:34:00,
2013-07-20 08:39:00,75.1,71.0,29.86,SW,222,7.0,7.0,87,0.00,,---,0.00,VWS V14.01,2013-07-20 12:39:00,
2013-07-20 08:40:00,75.1,71.0,29.86,SSW,209,7.0,13.0,87,0.00,,---,0.00,VWS V14.01,2013-07-20 12:40:00,
2013-07-20 08:44:00,75.1,71.0,29.86,SSW,207,3.0,16.0,87,0.00,,---,0.00,VWS V14.01,2013-07-20 12:44:00,
2013-07-20 08:49:00,75.2,71.1,29.86,SW,227,6.0,8.0,87,0.00,,---,0.00,VWS V14.01,2013-07-20 12:49:00,
2013-07-20 08:50:00,75.1,71.0,29.86,South,169,5.0,16.0,87,0.00,,---,0.00,VWS V14.01,2013-07-20 12:50:00,
2013-07-20 08:54:00,75.4,70.9,29.86,SW,221,3.0,12.0,86,0.00,,---,0.00,VWS V14.01,2013-07-20 12:54:00,
2013-07-20 08:59:00,75.4,71.3,29.87,SW,225,8.0,8.0,87,0.00,,---,0.00,VWS V14.01,2013-07-20 12:59:00,
2013-07-20 09:00:00,75.4,71.3,29.87,WSW,246,2.0,12.0,87,0.00,,---,0.00,VWS V14.01,2013-07-20 13:00:00,
2013-07-20 09:04:00,75.2,71.1,29.87,SW,218,2.0,9.0,87,0.00,,---,0.00,VWS V14.01,2013-07-20 13:04:00,
2013-07-20 09:09:00,75.1,71.0,29.87,SSW,202,2.0,6.0,87,0.00,,---,0.00,VWS V14.01,2013-07-20 13:09:00,
2013-07-20 09:10:00,75.1,71.0,29.87,SW,236,4.0,9.0,87,0.00,,---,0.00,VWS V14.01,2013-07-20 13:10:00,
2013-07-20 09:14:00,75.1,71.0,29.87,SW,234,4.0,10.0,87,0.00,,---,0.00,VWS V14.01,2013-07-20 13:14:00,
2013-07-20 09:19:00,74.9,70.8,29.87,SW,215,2.0,5.0,87,0.00,,---,0.00,VWS V14.01,2013-07-20 13:19:00,
2013-07-20 09:20:00,75.0,70.9,29.87,SW,215,5.0,10.0,87,0.00,,---,0.00,VWS V14.01,2013-07-20 13:20:00,
2013-07-20 09:24:00,74.7,70.9,29.87,SSW,192,7.0,12.0,88,0.05,,---,0.05,VWS V14.01,2013-07-20 13:24:00,
2013-07-20 09:29:00,74.1,71.0,29.87,SW,225,4.0,8.0,90,0.10,,---,0.10,VWS V14.01,2013-07-20 13:29:00,
2013-07-20 09:30:00,74.2,71.1,29.87,SSE,163,6.0,12.0,90,0.10,,---,0.10,VWS V14.01,2013-07-20 13:30:00,
2013-07-20 09:34:00,73.8,70.7,29.87,SW,222,5.0,9.0,90,0.10,,---,0.10,VWS V14.01,2013-07-20 13:34:00,
2013-07-20 09:39:00,73.7,70.9,29.87,SW,226,4.0,7.0,91,0.10,,---,0.10,VWS V14.01,2013-07-20 13:39:00,
2013-07-20 09:40:00,73.7,70.9,29.87,SW,218,4.0,9.0,91,0.10,,---,0.10,VWS V14.01,2013-07-20 13:40:00,
2013-07-20 09:44:00,73.6,70.8,29.86,SW,215,4.0,7.0,91,0.11,,---,0.11,VWS V14.01,2013-07-20 13:44:00,
2013-07-20 09:49:00,73.6,70.8,29.86,WSW,248,4.0,7.0,91,0.12,,---,0.12,VWS V14.01,2013-07-20 13:49:00,
2013-07-20 09:50:00,73.6,71.1,29.86,SSW,202,7.0,9.0,92,0.12,,---,0.12,VWS V14.01,2013-07-20 13:50:00,
2013-07-20 09:54:00,73.6,71.1,29.86,WSW,245,7.0,7.0,92,0.12,,---,0.12,VWS V14.01,2013-07-20 13:54:00,
2013-07-20 09:59:00,73.7,71.2,29.86,WSW,253,3.0,7.0,92,0.12,,---,0.12,VWS V14.01,2013-07-20 13:59:00,
2013-07-20 10:00:00,73.7,71.2,29.86,SSE,164,2.0,8.0,92,0.12,,---,0.12,VWS V14.01,2013-07-20 14:00:00,
2013-07-20 10:04:00,73.8,71.3,29.86,SW,227,1.0,8.0,92,0.12,,---,0.12,VWS V14.01,2013-07-20 14:04:00,
2013-07-20 10:09:00,73.9,71.4,29.86,SW,225,3.0,4.0,92,0.13,,---,0.13,VWS V14.01,2013-07-20 14:09:00,
2013-07-20 10:10:00,73.9,71.4,29.86,SW,229,1.0,8.0,92,0.13,,---,0.13,VWS V14.01,2013-07-20 14:10:00,
2013-07-20 10:14:00,73.9,71.4,29.86,SW,230,1.0,6.0,92,0.13,,---,0.13,VWS V14.01,2013-07-20 14:14:00,
2013-07-20 10:19:00,74.0,71.5,29.86,SSW,211,2.0,3.0,92,0.13,,---,0.13,VWS V14.01,2013-07-20 14:19:00,
2013-07-20 10:20:00,74.0,71.5,29.86,SSW,203,2.0,6.0,92,0.13,,---,0.13,VWS V14.01,2013-07-20 14:20:00,
2013-07-20 10:24:00,74.1,71.6,29.87,South,190,0.0,3.0,92,0.13,,---,0.13,VWS V14.01,2013-07-20 14:24:00,
2013-07-20 10:30:00,74.2,71.7,29.87,SSW,206,1.0,3.0,92,0.03,,---,0.13,VWS V14.01,2013-07-20 14:30:00,
2013-07-20 10:35:00,74.4,71.9,29.87,SW,236,0.0,4.0,92,0.03,,---,0.13,VWS V14.01,2013-07-20 14:35:00,
2013-07-20 10:40:00,74.6,72.1,29.87,West,260,1.0,2.0,92,0.03,,---,0.13,VWS V14.01,2013-07-20 14:40:00,
2013-07-20 10:45:00,74.8,72.0,29.87,WSW,242,0.0,2.0,91,0.03,,---,0.13,VWS V14.01,2013-07-20 14:45:00,
2013-07-20 10:50:00,74.9,72.1,29.87,SSW,203,2.0,3.0,91,0.01,,---,0.13,VWS V14.01,2013-07-20 14:50:00,
2013-07-20 10:55:00,75.1,72.0,29.86,WSW,245,3.0,6.0,90,0.01,,---,0.13,VWS V14.01,2013-07-20 14:55:00,
2013-07-20 11:00:00,75.1,72.0,29.86,South,188,0.0,1.0,90,0.01,,---,0.13,VWS V14.01,2013-07-20 15:00:00,
2013-07-20 11:05:00,75.2,72.1,29.86,SW,214,1.0,4.0,90,0.01,,---,0.13,VWS V14.01,2013-07-20 15:05:00,
2013-07-20 11:10:00,75.2,72.4,29.86,WSW,237,0.0,0.0,91,0.00,,---,0.13,VWS V14.01,2013-07-20 15:10:00,
2013-07-20 11:15:00,75.1,72.0,29.86,SSW,207,0.0,2.0,90,0.00,,---,0.13,VWS V14.01,2013-07-20 15:15:00,
2013-07-20 11:20:00,75.1,72.0,29.86,SSW,211,0.0,0.0,90,0.00,,---,0.13,VWS V14.01,2013-07-20 15:20:00,
2013-07-20 11:25:00,75.1,72.0,29.86,South,184,1.0,2.0,90,0.06,,---,0.19,VWS V14.01,2013-07-20 15:25:00,
2013-07-20 11:30:00,74.9,72.1,29.86,South,183,0.0,0.0,91,0.09,,---,0.22,VWS V14.01,2013-07-20 15:30:00,
2013-07-20 11:35:00,74.6,71.8,29.86,NW,322,0.0,3.0,91,0.14,,---,0.27,VWS V14.01,2013-07-20 15:35:00,
2013-07-20 11:40:00,74.4,71.9,29.88,ESE,103,0.0,2.0,92,0.38,,---,0.51,VWS V14.01,2013-07-20 15:40:00,
2013-07-20 11:45:00,74.0,71.8,29.87,NW,325,3.0,4.0,93,0.56,,---,0.69,VWS V14.01,2013-07-20 15:45:00,
2013-07-20 11:50:00,73.0,70.5,29.86,NNW,329,0.0,1.0,92,0.56,,---,0.69,VWS V14.01,2013-07-20 15:50:00,
2013-07-20 11:55:00,72.5,69.7,29.86,WSW,249,0.0,1.0,91,0.56,,---,0.69,VWS V14.01,2013-07-20 15:55:00,
2013-07-20 12:00:00,72.3,69.5,29.87,South,176,4.0,5.0,91,0.56,,---,0.69,VWS V14.01,2013-07-20 16:00:00,
2013-07-20 12:05:00,72.3,69.8,29.88,South,183,5.0,8.0,92,0.56,,---,0.69,VWS V14.01,2013-07-20 16:05:00,
2013-07-20 12:10:00,71.5,68.1,29.89,SSW,212,7.0,11.0,89,0.56,,---,0.69,VWS V14.01,2013-07-20 16:10:00,
2013-07-20 12:15:00,70.6,67.5,29.89,South,188,5.0,11.0,90,0.56,,---,0.69,VWS V14.01,2013-07-20 16:15:00,
2013-07-20 12:20:00,69.9,66.8,29.89,SSW,209,6.0,11.0,90,0.56,,---,0.69,VWS V14.01,2013-07-20 16:20:00,
2013-07-20 12:25:00,69.5,66.8,29.88,SSW,208,5.0,11.0,91,0.56,,---,0.69,VWS V14.01,2013-07-20 16:25:00,
2013-07-20 12:30:00,69.2,66.8,29.88,South,187,4.0,13.0,92,0.48,,---,0.69,VWS V14.01,2013-07-20 16:30:00,
2013-07-20 12:35:00,68.9,66.5,29.88,SSE,150,7.0,13.0,92,0.48,,---,0.69,VWS V14.01,2013-07-20 16:35:00,
2013-07-20 12:40:00,68.6,66.2,29.88,SSE,167,7.0,11.0,92,0.31,,---,0.69,VWS V14.01,2013-07-20 16:40:00,
2013-07-20 12:45:00,68.4,66.0,29.86,SSW,213,7.0,11.0,92,0.31,,---,0.69,VWS V14.01,2013-07-20 16:45:00,
2013-07-20 12:50:00,68.4,66.3,29.86,South,188,3.0,3.0,93,0.00,,---,0.69,VWS V14.01,2013-07-20 16:50:00,
2013-07-20 12:55:00,68.6,66.5,29.87,South,188,3.0,8.0,93,0.00,,---,0.69,VWS V14.01,2013-07-20 16:55:00,
2013-07-20 13:00:00,68.8,66.4,29.86,WSW,241,5.0,9.0,92,0.00,,---,0.69,VWS V14.01,2013-07-20 17:00:00,
2013-07-20 13:05:00,69.0,66.6,29.86,WSW,237,0.0,9.0,92,0.00,,---,0.69,VWS V14.01,2013-07-20 17:05:00,
2013-07-20 13:10:00,69.3,66.9,29.86,SW,215,5.0,9.0,92,0.00,,---,0.69,VWS V14.01,2013-07-20 17:10:00,
2013-07-20 13:15:00,69.5,66.8,29.85,SW,225,2.0,10.0,91,0.00,,---,0.69,VWS V14.01,2013-07-20 17:15:00,
2013-07-20 13:20:00,69.6,66.9,29.85,SW,226,4.0,13.0,91,0.00,,---,0.69,VWS V14.01,2013-07-20 17:20:00,
2013-07-20 13:25:00,69.9,67.2,29.85,South,187,2.0,13.0,91,0.00,,---,0.69,VWS V14.01,2013-07-20 17:25:00,
2013-07-20 13:30:00,70.1,67.4,29.85,SW,218,7.0,10.0,91,0.00,,---,0.69,VWS V14.01,2013-07-20 17:30:00,
2013-07-20 13:35:00,70.2,67.4,29.85,WSW,256,5.0,11.0,91,0.00,,---,0.69,VWS V14.01,2013-07-20 17:35:00,
2013-07-20 13:40:00,70.3,67.2,29.86,SSW,200,2.0,6.0,90,0.00,,---,0.69,VWS V14.01,2013-07-20 17:40:00,
2013-07-20 13:45:00,70.2,67.1,29.86,WSW,250,7.0,11.0,90,0.00,,---,0.69,VWS V14.01,2013-07-20 17:45:00,
2013-07-20 13:50:00,70.0,67.3,29.86,WSW,242,8.0,13.0,91,0.00,,---,0.69,VWS V14.01,2013-07-20 17:50:00,
2013-07-20 13:55:00,69.8,67.1,29.86,SW,225,11.0,14.0,91,0.00,,---,0.69,VWS V14.01,2013-07-20 17:55:00,
2013-07-20 14:00:00,69.6,66.9,29.86,SSW,199,9.0,10.0,91,0.00,,---,0.69,VWS V14.01,2013-07-20 18:00:00,
2013-07-20 14:05:00,69.6,67.2,29.87,SW,221,5.0,11.0,92,0.00,,---,0.69,VWS V14.01,2013-07-20 18:05:00,
2013-07-20 14:10:00,69.5,67.1,29.86,SW,221,7.0,11.0,92,0.00,,---,0.69,VWS V14.01,2013-07-20 18:10:00,
2013-07-20 14:11:00,69.4,67.0,29.86,SSW,205,4.0,10.0,92,0.00,,---,0.69,VWS V14.01,2013-07-20 18:11:00,
2013-07-20 14:16:00,69.4,67.0,29.86,SW,227,4.0,13.0,92,0.00,,---,0.69,VWS V14.01,2013-07-20 18:16:00,
2013-07-20 14:20:00,69.4,67.0,29.86,South,182,6.0,13.0,92,0.00,,---,0.69,VWS V14.01,2013-07-20 18:20:00,
2013-07-20 14:21:00,69.4,67.0,29.86,SSW,210,5.0,11.0,92,0.00,,---,0.69,VWS V14.01,2013-07-20 18:21:00,
2013-07-20 14:26:00,69.4,67.0,29.86,SSW,210,7.0,13.0,92,0.00,,---,0.69,VWS V14.01,2013-07-20 18:26:00,
2013-07-20 14:30:00,69.4,67.0,29.86,SW,232,8.0,13.0,92,0.00,,---,0.69,VWS V14.01,2013-07-20 18:30:00,
2013-07-20 14:31:00,69.5,67.1,29.86,SW,219,9.0,11.0,92,0.01,,---,0.70,VWS V14.01,2013-07-20 18:31:00,
2013-07-20 14:37:00,69.6,67.2,29.85,SSW,206,2.0,11.0,92,0.01,,---,0.70,VWS V14.01,2013-07-20 18:37:00,
2013-07-20 14:40:00,69.7,67.3,29.85,South,187,4.0,11.0,92,0.01,,---,0.70,VWS V14.01,2013-07-20 18:40:00,
2013-07-20 14:43:00,69.9,67.5,29.84,South,171,5.0,10.0,92,0.01,,---,0.70,VWS V14.01,2013-07-20 18:43:00,
2013-07-20 14:48:00,70.5,67.8,29.84,South,183,4.0,10.0,91,0.01,,---,0.70,VWS V14.01,2013-07-20 18:48:00,
2013-07-20 14:50:00,70.5,67.8,29.84,SSW,209,2.0,10.0,91,0.01,,---,0.70,VWS V14.01,2013-07-20 18:50:00,
2013-07-20 14:53:00,70.9,67.8,29.84,South,176,5.0,10.0,90,0.01,,---,0.70,VWS V14.01,2013-07-20 18:53:00,
2013-07-20 14:59:00,71.5,68.4,29.83,South,180,2.0,4.0,90,0.01,,---,0.70,VWS V14.01,2013-07-20 18:59:00,
2013-07-20 15:00:00,71.5,68.4,29.83,SW,230,4.0,12.0,90,0.01,,---,0.70,VWS V14.01,2013-07-20 19:00:00,
2013-07-20 15:04:00,71.8,68.4,29.84,WSW,251,4.0,8.0,89,0.01,,---,0.70,VWS V14.01,2013-07-20 19:04:00,
2013-07-20 15:10:00,72.0,68.3,29.84,SSW,211,3.0,4.0,88,0.01,,---,0.70,VWS V14.01,2013-07-20 19:10:00,
2013-07-20 15:15:00,71.9,68.5,29.84,WSW,252,1.0,5.0,89,0.01,,---,0.70,VWS V14.01,2013-07-20 19:15:00,
2013-07-20 15:20:00,71.6,68.2,29.84,SW,228,2.0,8.0,89,0.02,,---,0.71,VWS V14.01,2013-07-20 19:20:00,
2013-07-20 15:26:00,71.4,68.3,29.84,South,188,7.0,13.0,90,0.02,,---,0.71,VWS V14.01,2013-07-20 19:26:00,
2013-07-20 15:30:00,71.2,68.1,29.84,West,271,3.0,13.0,90,0.03,,---,0.72,VWS V14.01,2013-07-20 19:30:00,
2013-07-20 15:31:00,71.1,68.0,29.83,SSW,199,5.0,9.0,90,0.03,,---,0.72,VWS V14.01,2013-07-20 19:31:00,
2013-07-20 15:36:00,70.9,68.2,29.82,South,188,7.0,12.0,91,0.03,,---,0.72,VWS V14.01,2013-07-20 19:36:00,
2013-07-20 15:40:00,70.9,68.2,29.82,SW,232,8.0,13.0,91,0.03,,---,0.72,VWS V14.01,2013-07-20 19:40:00,
2013-07-20 15:41:00,70.9,68.2,29.82,WSW,237,4.0,11.0,91,0.02,,---,0.72,VWS V14.01,2013-07-20 19:41:00,
2013-07-20 15:46:00,70.9,68.2,29.81,South,173,7.0,11.0,91,0.02,,---,0.72,VWS V14.01,2013-07-20 19:46:00,
2013-07-20 15:50:00,71.0,68.2,29.81,SW,236,3.0,11.0,91,0.02,,---,0.72,VWS V14.01,2013-07-20 19:50:00,
2013-07-20 15:51:00,71.1,68.0,29.81,WSW,246,1.0,8.0,90,0.02,,---,0.72,VWS V14.01,2013-07-20 19:51:00,
2013-07-20 15:57:00,71.3,68.2,29.81,SW,234,3.0,8.0,90,0.02,,---,0.72,VWS V14.01,2013-07-20 19:57:00,
2013-07-20 16:00:00,71.4,68.6,29.81,SSW,211,2.0,8.0,91,0.02,,---,0.72,VWS V14.01,2013-07-20 20:00:00,
2013-07-20 16:02:00,71.4,68.3,29.81,SW,231,0.0,4.0,90,0.02,,---,0.72,VWS V14.01,2013-07-20 20:02:00,
2013-07-20 16:07:00,71.6,68.5,29.81,SW,215,2.0,6.0,90,0.02,,---,0.72,VWS V14.01,2013-07-20 20:07:00,
2013-07-20 16:10:00,71.6,68.5,29.81,SW,236,4.0,6.0,90,0.02,,---,0.72,VWS V14.01,2013-07-20 20:10:00,
2013-07-20 16:12:00,71.8,68.4,29.81,NNE,32,1.0,8.0,89,0.02,,---,0.72,VWS V14.01,2013-07-20 20:12:00,
2013-07-20 16:17:00,71.9,68.5,29.82,SW,236,1.0,8.0,89,0.02,,---,0.72,VWS V14.01,2013-07-20 20:17:00,
2013-07-20 16:20:00,71.9,68.5,29.82,West,261,2.0,8.0,89,0.02,,---,0.72,VWS V14.01,2013-07-20 20:20:00,
2013-07-20 16:23:00,71.9,68.5,29.82,WSW,237,3.0,6.0,89,0.02,,---,0.72,VWS V14.01,2013-07-20 20:23:00,
2013-07-20 16:28:00,71.9,68.8,29.82,SSW,209,4.0,7.0,90,0.02,,---,0.72,VWS V14.01,2013-07-20 20:28:00,
2013-07-20 16:30:00,71.8,68.7,29.82,SW,234,6.0,8.0,90,0.02,,---,0.72,VWS V14.01,2013-07-20 20:30:00,
2013-07-20 16:33:00,71.8,68.7,29.81,WSW,238,2.0,8.0,90,0.00,,---,0.72,VWS V14.01,2013-07-20 20:33:00,
2013-07-20 16:38:00,71.8,68.7,29.81,SSW,210,5.0,8.0,90,0.00,,---,0.72,VWS V14.01,2013-07-20 20:38:00,
2013-07-20 16:40:00,71.8,68.7,29.81,SSW,210,5.0,8.0,90,0.00,,---,0.72,VWS V14.01,2013-07-20 20:40:00,
2013-07-20 16:43:00,71.7,68.6,29.80,South,191,1.0,10.0,90,0.00,,---,0.72,VWS V14.01,2013-07-20 20:43:00,
2013-07-20 16:48:00,71.7,68.6,29.80,SW,233,7.0,10.0,90,0.00,,---,0.72,VWS V14.01,2013-07-20 20:48:00,
2013-07-20 16:50:00,71.7,68.6,29.80,SW,233,7.0,10.0,90,0.00,,---,0.72,VWS V14.01,2013-07-20 20:50:00,
2013-07-20 16:53:00,71.7,68.6,29.80,WSW,237,6.0,10.0,90,0.00,,---,0.72,VWS V14.01,2013-07-20 20:53:00,
2013-07-20 16:58:00,71.6,68.5,29.80,SSE,161,4.0,10.0,90,0.00,,---,0.72,VWS V14.01,2013-07-20 20:58:00,
2013-07-20 17:00:00,71.6,68.5,29.80,SSW,194,4.0,10.0,90,0.00,,---,0.72,VWS V14.01,2013-07-20 21:00:00,
2013-07-20 17:04:00,71.6,68.5,29.80,SSW,202,3.0,7.0,90,0.00,,---,0.72,VWS V14.01,2013-07-20 21:04:00,
2013-07-20 17:09:00,71.5,68.4,29.80,SSE,156,8.0,8.0,90,0.00,,---,0.72,VWS V14.01,2013-07-20 21:09:00,
2013-07-20 17:10:00,71.5,68.4,29.80,South,187,4.0,7.0,90,0.00,,---,0.72,VWS V14.01,2013-07-20 21:10:00,
2013-07-20 17:14:00,71.4,68.3,29.80,WSW,244,6.0,9.0,90,0.00,,---,0.72,VWS V14.01,2013-07-20 21:14:00,
2013-07-20 17:20:00,71.4,68.6,29.80,SW,222,4.0,6.0,91,0.00,,---,0.72,VWS V14.01,2013-07-20 21:20:00,
2013-07-20 17:25:00,71.5,68.7,29.80,South,175,5.0,9.0,91,0.00,,---,0.72,VWS V14.01,2013-07-20 21:25:00,
2013-07-20 17:30:00,71.5,68.7,29.80,WSW,245,3.0,9.0,91,0.00,,---,0.72,VWS V14.01,2013-07-20 21:30:00,
2013-07-20 17:31:00,71.5,68.7,29.81,SSE,149,1.0,5.0,91,0.00,,---,0.72,VWS V14.01,2013-07-20 21:31:00,
2013-07-20 17:37:00,71.8,69.0,29.82,NE,42,1.0,7.0,91,0.00,,---,0.72,VWS V14.01,2013-07-20 21:37:00,
2013-07-20 17:40:00,71.9,69.1,29.82,West,268,1.0,7.0,91,0.00,,---,0.72,VWS V14.01,2013-07-20 21:40:00,
2013-07-20 17:42:00,72.0,69.2,29.81,WSW,238,4.0,4.0,91,0.00,,---,0.72,VWS V14.01,2013-07-20 21:42:00,
2013-07-20 17:48:00,72.1,69.3,29.82,WSW,252,1.0,4.0,91,0.00,,---,0.72,VWS V14.01,2013-07-20 21:48:00,
2013-07-20 17:50:00,72.1,69.3,29.82,NNW,342,0.0,4.0,91,0.00,,---,0.72,VWS V14.01,2013-07-20 21:50:00,
2013-07-20 17:53:00,72.3,69.5,29.82,NNW,328,2.0,3.0,91,0.00,,---,0.72,VWS V14.01,2013-07-20 21:53:00,
2013-07-20 17:58:00,72.5,69.7,29.82,ENE,69,0.0,3.0,91,0.00,,---,0.72,VWS V14.01,2013-07-20 21:58:00,
2013-07-20 18:00:00,72.5,69.4,29.82,SSW,210,0.0,3.0,90,0.00,,---,0.72,VWS V14.01,2013-07-20 22:00:00,
2013-07-20 18:03:00,72.7,69.6,29.83,South,190,0.0,2.0,90,0.00,,---,0.72,VWS V14.01,2013-07-20 22:03:00,
2013-07-20 18:08:00,72.9,69.5,29.83,NNW,335,2.0,3.0,89,0.00,,---,0.72,VWS V14.01,2013-07-20 22:08:00,
2013-07-20 18:10:00,72.9,69.5,29.83,NW,315,1.0,3.0,89,0.00,,---,0.72,VWS V14.01,2013-07-20 22:10:00,
2013-07-20 18:13:00,72.9,69.5,29.84,SW,215,0.0,6.0,89,0.00,,---,0.72,VWS V14.01,2013-07-20 22:13:00,
2013-07-20 18:18:00,73.2,69.8,29.84,NW,325,0.0,6.0,89,0.00,,---,0.72,VWS V14.01,2013-07-20 22:18:00,
2013-07-20 18:20:00,73.2,69.8,29.84,NW,324,0.0,6.0,89,0.00,,---,0.72,VWS V14.01,2013-07-20 22:20:00,
2013-07-20 18:23:00,73.6,69.8,29.83,WSW,257,0.0,0.0,88,0.00,,---,0.72,VWS V14.01,2013-07-20 22:23:00,
2013-07-20 18:28:00,73.9,69.4,29.83,SW,219,0.0,2.0,86,0.00,,---,0.72,VWS V14.01,2013-07-20 22:28:00,
2013-07-20 18:30:00,73.9,69.4,29.83,SW,219,0.0,2.0,86,0.00,,---,0.72,VWS V14.01,2013-07-20 22:30:00,
2013-07-20 18:34:00,73.8,69.0,29.83,SE,142,0.0,1.0,85,0.00,,---,0.72,VWS V14.01,2013-07-20 22:34:00,
2013-07-20 18:39:00,73.6,69.2,29.83,NNW,337,0.0,0.0,86,0.00,,---,0.72,VWS V14.01,2013-07-20 22:39:00,
2013-07-20 18:40:00,73.6,69.2,29.83,NNW,340,0.0,1.0,86,0.00,,---,0.72,VWS V14.01,2013-07-20 22:40:00,
2013-07-20 18:44:00,73.6,69.2,29.83,SSE,157,2.0,2.0,86,0.00,,---,0.72,VWS V14.01,2013-07-20 22:44:00,
2013-07-20 18:49:00,73.4,69.3,29.83,South,169,0.0,1.0,87,0.00,,---,0.72,VWS V14.01,2013-07-20 22:49:00,
2013-07-20 18:50:00,73.3,69.2,29.83,South,171,1.0,2.0,87,0.00,,---,0.72,VWS V14.01,2013-07-20 22:50:00,
2013-07-20 18:54:00,73.2,69.1,29.83,SE,134,0.0,2.0,87,0.00,,---,0.72,VWS V14.01,2013-07-20 22:54:00,
2013-07-20 18:59:00,73.2,69.1,29.83,SSE,157,0.0,0.0,87,0.00,,---,0.72,VWS V14.01,2013-07-20 22:59:00,
2013-07-20 19:00:00,73.2,69.1,29.83,SSE,156,0.0,2.0,87,0.00,,---,0.72,VWS V14.01,2013-07-20 23:00:00,
2013-07-20 19:04:00,73.1,68.7,29.83,SSW,205,2.0,2.0,86,0.00,,---,0.72,VWS V14.01,2013-07-20 23:04:00,
2013-07-20 19:10:00,73.1,69.0,29.83,SSW,211,0.0,0.0,87,0.00,,---,0.72,VWS V14.01,2013-07-20 23:10:00,
2013-07-20 19:15:00,73.1,69.0,29.83,SSW,212,0.0,0.0,87,0.00,,---,0.72,VWS V14.01,2013-07-20 23:15:00,
2013-07-20 19:20:00,73.2,69.4,29.83,SSW,211,0.0,0.0,88,0.00,,---,0.72,VWS V14.01,2013-07-20 23:20:00,
2013-07-20 19:25:00,73.2,69.4,29.84,SSW,211,0.0,0.0,88,0.00,,---,0.72,VWS V14.01,2013-07-20 23:25:00,
2013-07-20 19:30:00,72.9,69.1,29.84,SW,227,0.0,0.0,88,0.00,,---,0.72,VWS V14.01,2013-07-20 23:30:00,
2013-07-20 19:36:00,72.6,69.2,29.84,SW,227,0.0,0.0,89,0.00,,---,0.72,VWS V14.01,2013-07-20 23:36:00,
2013-07-20 19:40:00,72.4,68.7,29.84,NW,304,0.0,0.0,88,0.00,,---,0.72,VWS V14.01,2013-07-20 23:40:00,
2013-07-20 19:41:00,72.4,69.0,29.84,NW,304,0.0,0.0,89,0.00,,---,0.72,VWS V14.01,2013-07-20 23:41:00,
2013-07-20 19:46:00,72.4,69.3,29.85,NW,304,0.0,0.0,90,0.00,,---,0.72,VWS V14.01,2013-07-20 23:46:00,
2013-07-20 19:50:00,72.3,69.2,29.85,WNW,296,0.0,0.0,90,0.00,,---,0.72,VWS V14.01,2013-07-20 23:50:00,
2013-07-20 19:51:00,72.2,69.1,29.85,WNW,296,0.0,0.0,90,0.00,,---,0.72,VWS V14.01,2013-07-20 23:51:00,
2013-07-20 19:56:00,72.2,69.1,29.85,SSW,207,0.0,0.0,90,0.00,,---,0.72,VWS V14.01,2013-07-20 23:56:00,
2013-07-20 20:00:00,72.2,69.1,29.85,SSW,207,0.0,0.0,90,0.00,,---,0.72,VWS V14.01,2013-07-21 00:00:00,
2013-07-20 20:02:00,72.1,69.0,29.85,SSW,207,0.0,0.0,90,0.00,,---,0.72,VWS V14.01,2013-07-21 00:02:00,
2013-07-20 20:07:00,72.1,69.3,29.85,SSW,207,0.0,0.0,91,0.00,,---,0.72,VWS V14.01,2013-07-21 00:07:00,
2013-07-20 20:10:00,72.1,69.3,29.85,SSW,207,0.0,0.0,91,0.00,,---,0.72,VWS V14.01,2013-07-21 00:10:00,
2013-07-20 20:12:00,72.0,69.2,29.85,SSW,207,0.0,0.0,91,0.00,,---,0.72,VWS V14.01,2013-07-21 00:12:00,
2013-07-20 20:18:00,71.8,69.0,29.85,SSW,209,0.0,0.0,91,0.00,,---,0.72,VWS V14.01,2013-07-21 00:18:00,
2013-07-20 20:20:00,71.8,69.0,29.85,SSW,209,0.0,0.0,91,0.00,,---,0.72,VWS V14.01,2013-07-21 00:20:00,
2013-07-20 20:23:00,71.6,68.8,29.85,SSW,209,0.0,0.0,91,0.00,,---,0.72,VWS V14.01,2013-07-21 00:23:00,
2013-07-20 20:28:00,71.4,68.6,29.85,SSW,209,0.0,0.0,91,0.00,,---,0.72,VWS V14.01,2013-07-21 00:28:00,
2013-07-20 20:30:00,71.4,68.6,29.85,SSW,209,0.0,0.0,91,0.00,,---,0.72,VWS V14.01,2013-07-21 00:30:00,
2013-07-20 20:33:00,71.3,68.5,29.85,SSW,209,0.0,0.0,91,0.00,,---,0.72,VWS V14.01,2013-07-21 00:33:00,
2013-07-20 20:38:00,71.1,68.7,29.85,South,187,0.0,0.0,92,0.00,,---,0.72,VWS V14.01,2013-07-21 00:38:00,
2013-07-20 20:40:00,71.1,68.7,29.85,SE,128,0.0,0.0,92,0.00,,---,0.72,VWS V14.01,2013-07-21 00:40:00,
2013-07-20 20:43:00,71.1,68.7,29.85,SE,138,0.0,0.0,92,0.00,,---,0.72,VWS V14.01,2013-07-21 00:43:00,
2013-07-20 20:48:00,70.9,68.8,29.85,SE,137,0.0,0.0,93,0.00,,---,0.72,VWS V14.01,2013-07-21 00:48:00,
2013-07-20 20:50:00,70.9,68.8,29.85,SE,137,0.0,0.0,93,0.00,,---,0.72,VWS V14.01,2013-07-21 00:50:00,
2013-07-20 20:53:00,70.7,68.6,29.85,SE,138,0.0,0.0,93,0.00,,---,0.72,VWS V14.01,2013-07-21 00:53:00,
2013-07-20 20:58:00,70.6,68.5,29.85,SE,137,0.0,0.0,93,0.00,,---,0.72,VWS V14.01,2013-07-21 00:58:00,
2013-07-20 21:00:00,70.6,68.5,29.85,SE,137,0.0,0.0,93,0.00,,---,0.72,VWS V14.01,2013-07-21 01:00:00,
2013-07-20 21:03:00,70.4,68.3,29.85,SE,137,0.0,0.0,93,0.00,,---,0.72,VWS V14.01,2013-07-21 01:03:00,
2013-07-20 21:08:00,70.2,68.1,29.85,SE,137,0.0,0.0,93,0.00,,---,0.72,VWS V14.01,2013-07-21 01:08:00,
2013-07-20 21:10:00,70.2,68.1,29.85,SE,137,0.0,0.0,93,0.00,,---,0.72,VWS V14.01,2013-07-21 01:10:00,
2013-07-20 21:14:00,70.0,68.2,29.85,SE,137,0.0,0.0,94,0.00,,---,0.72,VWS V14.01,2013-07-21 01:14:00,
2013-07-20 21:19:00,70.0,68.2,29.85,SE,137,0.0,0.0,94,0.00,,---,0.72,VWS V14.01,2013-07-21 01:19:00,
2013-07-20 21:20:00,69.9,68.1,29.85,SE,137,0.0,0.0,94,0.00,,---,0.72,VWS V14.01,2013-07-21 01:20:00,
2013-07-20 21:24:00,69.9,68.4,29.86,SE,137,0.0,0.0,95,0.00,,---,0.72,VWS V14.01,2013-07-21 01:24:00,
2013-07-20 21:29:00,69.7,67.9,29.86,SE,137,0.0,0.0,94,0.00,,---,0.72,VWS V14.01,2013-07-21 01:29:00,
2013-07-20 21:30:00,69.8,68.0,29.86,SE,137,0.0,0.0,94,0.00,,---,0.72,VWS V14.01,2013-07-21 01:30:00,
2013-07-20 21:34:00,69.7,68.2,29.86,SSE,153,0.0,0.0,95,0.00,,---,0.72,VWS V14.01,2013-07-21 01:34:00,
2013-07-20 21:39:00,69.6,68.1,29.86,SSE,154,0.0,0.0,95,0.00,,---,0.72,VWS V14.01,2013-07-21 01:39:00,
2013-07-20 21:40:00,69.6,68.1,29.86,SSE,153,0.0,0.0,95,0.00,,---,0.72,VWS V14.01,2013-07-21 01:40:00,
2013-07-20 21:44:00,69.5,68.0,29.86,South,176,0.0,0.0,95,0.00,,---,0.72,VWS V14.01,2013-07-21 01:44:00,
2013-07-20 21:50:00,69.4,67.9,29.86,South,176,0.0,0.0,95,0.00,,---,0.72,VWS V14.01,2013-07-21 01:50:00,
2013-07-20 21:55:00,69.4,67.9,29.86,South,176,0.0,0.0,95,0.00,,---,0.72,VWS V14.01,2013-07-21 01:55:00,
2013-07-20 22:00:00,69.3,67.8,29.86,South,169,0.0,0.0,95,0.00,,---,0.72,VWS V14.01,2013-07-21 02:00:00,
2013-07-20 22:05:00,69.3,67.8,29.86,SSW,207,0.0,0.0,95,0.00,,---,0.72,VWS V14.01,2013-07-21 02:05:00,
2013-07-20 22:10:00,69.2,67.7,29.86,SSW,207,0.0,0.0,95,0.00,,---,0.72,VWS V14.01,2013-07-21 02:10:00,
2013-07-20 22:15:00,69.1,67.6,29.86,SSW,207,0.0,0.0,95,0.00,,---,0.72,VWS V14.01,2013-07-21 02:15:00,
2013-07-20 22:20:00,69.1,67.6,29.86,SSW,207,0.0,0.0,95,0.00,,---,0.72,VWS V14.01,2013-07-21 02:20:00,
2013-07-20 22:21:00,69.1,67.6,29.86,SSW,207,0.0,0.0,95,0.00,,---,0.72,VWS V14.01,2013-07-21 02:21:00,
2013-07-20 22:26:00,69.0,67.5,29.86,SSW,207,0.0,0.0,95,0.00,,---,0.72,VWS V14.01,2013-07-21 02:26:00,
2013-07-20 22:30:00,69.0,67.5,29.86,SSW,205,0.0,0.0,95,0.00,,---,0.72,VWS V14.01,2013-07-21 02:30:00,
2013-07-20 22:31:00,68.9,67.4,29.87,SW,236,0.0,2.0,95,0.00,,---,0.72,VWS V14.01,2013-07-21 02:31:00,
2013-07-20 22:36:00,68.8,67.3,29.86,SW,236,0.0,2.0,95,0.00,,---,0.72,VWS V14.01,2013-07-21 02:36:00,
2013-07-20 22:40:00,68.8,67.3,29.87,SW,236,0.0,2.0,95,0.00,,---,0.72,VWS V14.01,2013-07-21 02:40:00,
2013-07-20 22:42:00,68.7,67.2,29.88,SW,236,0.0,0.0,95,0.00,,---,0.72,VWS V14.01,2013-07-21 02:42:00,
2013-07-20 22:47:00,68.7,67.2,29.88,SW,236,0.0,0.0,95,0.00,,---,0.72,VWS V14.01,2013-07-21 02:47:00,
2013-07-20 22:50:00,68.7,67.2,29.88,SW,236,0.0,0.0,95,0.00,,---,0.72,VWS V14.01,2013-07-21 02:50:00,
2013-07-20 22:52:00,68.7,67.2,29.88,SW,236,0.0,0.0,95,0.00,,---,0.72,VWS V14.01,2013-07-21 02:52:00,
2013-07-20 22:57:00,68.7,67.2,29.88,South,186,0.0,0.0,95,0.00,,---,0.72,VWS V14.01,2013-07-21 02:57:00,
2013-07-20 23:00:00,68.7,67.2,29.87,SSE,164,1.0,2.0,95,0.00,,---,0.72,VWS V14.01,2013-07-21 03:00:00,
2013-07-20 23:02:00,68.7,67.2,29.88,South,171,0.0,2.0,95,0.00,,---,0.72,VWS V14.01,2013-07-21 03:02:00,
2013-07-20 23:07:00,68.6,67.1,29.87,SSE,165,0.0,2.0,95,0.00,,---,0.72,VWS V14.01,2013-07-21 03:07:00,
2013-07-20 23:10:00,68.6,67.1,29.88,SSE,157,0.0,2.0,95,0.00,,---,0.72,VWS V14.01,2013-07-21 03:10:00,
2013-07-20 23:12:00,68.6,67.1,29.88,SW,231,0.0,0.0,95,0.00,,---,0.72,VWS V14.01,2013-07-21 03:12:00,
2013-07-20 23:17:00,68.7,67.5,29.88,SW,229,0.0,0.0,96,0.00,,---,0.72,VWS V14.01,2013-07-21 03:17:00,
2013-07-20 23:20:00,68.7,67.2,29.89,SW,226,0.0,0.0,95,0.00,,---,0.72,VWS V14.01,2013-07-21 03:20:00,
2013-07-20 23:22:00,68.7,67.5,29.89,SW,221,0.0,2.0,96,0.00,,---,0.72,VWS V14.01,2013-07-21 03:22:00,
2013-07-20 23:27:00,68.8,67.6,29.89,SSW,213,1.0,2.0,96,0.00,,---,0.72,VWS V14.01,2013-07-21 03:27:00,
2013-07-20 23:30:00,68.8,67.6,29.89,SSW,206,0.0,2.0,96,0.00,,---,0.72,VWS V14.01,2013-07-21 03:30:00,
2013-07-20 23:32:00,68.8,67.3,29.89,WSW,238,0.0,3.0,95,0.00,,---,0.72,VWS V14.01,2013-07-21 03:32:00,
2013-07-20 23:37:00,68.9,67.4,29.89,SSW,198,5.0,5.0,95,0.00,,---,0.72,VWS V14.01,2013-07-21 03:37:00,
2013-07-20 23:40:00,68.9,67.4,29.89,SSW,205,0.0,5.0,95,0.00,,---,0.72,VWS V14.01,2013-07-21 03:40:00,
2013-07-20 23:42:00,69.0,67.5,29.88,SW,233,3.0,4.0,95,0.00,,---,0.72,VWS V14.01,2013-07-21 03:42:00,
2013-07-20 23:47:00,69.0,67.5,29.88,SSW,207,0.0,6.0,95,0.00,,---,0.72,VWS V14.01,2013-07-21 03:47:00,
2013-07-20 23:50:00,69.0,67.5,29.88,SSW,205,1.0,6.0,95,0.00,,---,0.72,VWS V14.01,2013-07-21 03:50:00,
2013-07-20 23:53:00,69.0,67.5,29.88,WSW,244,0.0,1.0,95,0.00,,---,0.72,VWS V14.01,2013-07-21 03:53:00,
2013-07-20 23:58:00,69.0,67.5,29.89,NW,313,0.0,1.0,95,0.00,,---,0.72,VWS V14.01,2013-07-21 03:58:00,